TimeEDT,TemperatureF,Dew PointF,Humidity,Sea Level PressureIn,VisibilityMPH,Wind Direction,Wind SpeedMPH,Gust SpeedMPH,PrecipitationIn,Events,Conditions,WindDirDegrees,DateUTC
12:35 AM,68.0,62.8,83,30.17,10.0,ESE,10.4,-,N/A,,Overcast,110,2013-05-18 04:35:00
12:55 AM,68.2,63.3,84,30.16,10.0,East,10.4,-,N/A,,Overcast,100,2013-05-18 04:55:00
1:15 AM,68.0,63.5,85,30.16,10.0,ESE,9.2,-,N/A,,Mostly Cloudy,110,2013-05-18 05:15:00
1:35 AM,68.0,63.5,85,30.15,10.0,ESE,10.4,-,N/A,,Scattered Clouds,110,2013-05-18 05:35:00
1:55 AM,68.4,63.9,85,30.14,10.0,ESE,10.4,-,N/A,,Mostly Cloudy,110,2013-05-18 05:55:00
2:15 AM,68.9,63.9,84,30.15,10.0,ESE,9.2,-,N/A,,Mostly Cloudy,120,2013-05-18 06:15:00
2:35 AM,69.1,63.9,83,30.14,10.0,ESE,10.4,-,N/A,,Mostly Cloudy,120,2013-05-18 06:35:00
2:55 AM,69.8,63.7,81,30.14,10.0,SE,9.2,-,N/A,,Mostly Cloudy,130,2013-05-18 06:55:00
3:15 AM,70.2,63.5,79,30.14,10.0,ESE,8.1,-,N/A,,Overcast,120,2013-05-18 07:15:00
3:35 AM,70.0,63.5,80,30.14,10.0,ESE,8.1,-,N/A,,Mostly Cloudy,120,2013-05-18 07:35:00
3:55 AM,69.3,64.4,84,30.14,10.0,ESE,11.5,-,N/A,,Light Drizzle,110,2013-05-18 07:55:00
4:15 AM,68.9,64.4,86,30.14,10.0,ESE,8.1,-,N/A,,Mostly Cloudy,120,2013-05-18 08:15:00
4:35 AM,68.5,64.0,85,30.14,10.0,ESE,10.4,-,N/A,,Overcast,120,2013-05-18 08:35:00
4:55 AM,68.9,64.2,85,30.15,10.0,East,5.8,-,N/A,Rain,Light Rain,100,2013-05-18 08:55:00
5:15 AM,68.5,64.2,86,30.14,10.0,ESE,10.4,-,N/A,Rain,Light Rain,110,2013-05-18 09:15:00
5:35 AM,68.9,63.9,84,30.14,10.0,ESE,11.5,-,N/A,,Mostly Cloudy,110,2013-05-18 09:35:00
5:55 AM,69.1,63.9,83,30.15,10.0,ESE,8.1,-,N/A,,Mostly Cloudy,120,2013-05-18 09:55:00
6:15 AM,69.3,63.9,83,30.16,10.0,ESE,8.1,-,N/A,,Scattered Clouds,120,2013-05-18 10:15:00
6:35 AM,69.8,64.0,82,30.17,10.0,ESE,11.5,-,N/A,,Scattered Clouds,110,2013-05-18 10:35:00
6:55 AM,69.8,64.6,83,30.17,10.0,ESE,10.4,-,N/A,,Mostly Cloudy,110,2013-05-18 10:55:00
7:15 AM,70.9,64.8,81,30.17,10.0,ESE,10.4,17.3,N/A,,Mostly Cloudy,110,2013-05-18 11:15:00
7:35 AM,70.7,64.6,81,30.17,10.0,ESE,12.7,-,N/A,,Overcast,120,2013-05-18 11:35:00
7:55 AM,71.2,64.6,79,30.19,10.0,ESE,12.7,17.3,N/A,,Overcast,110,2013-05-18 11:55:00
8:15 AM,70.7,64.0,79,30.18,10.0,ESE,12.7,18.4,N/A,,Overcast,110,2013-05-18 12:15:00
8:35 AM,70.7,63.7,78,30.19,10.0,East,9.2,-,N/A,Rain,Light Rain,90,2013-05-18 12:35:00
8:55 AM,68.0,64.8,89,30.21,2.0,WNW,3.5,-,0.15,Rain,Rain,300,2013-05-18 12:55:00
9:15 AM,67.8,64.8,90,30.21,10.0,NE,4.6,-,N/A,Rain,Light Rain,50,2013-05-18 13:15:00
9:35 AM,68.4,65.3,90,30.21,10.0,ESE,4.6,-,N/A,,Light Drizzle,120,2013-05-18 13:35:00
9:55 AM,69.3,65.8,89,30.21,7.0,ESE,4.6,-,N/A,Rain,Light Rain,120,2013-05-18 13:55:00
10:15 AM,69.8,66.2,88,30.21,10.0,SSE,5.8,-,N/A,,Overcast,150,2013-05-18 14:15:00
10:35 AM,70.5,66.4,87,30.21,10.0,SE,4.6,-,N/A,,Overcast,130,2013-05-18 14:35:00
10:55 AM,70.9,65.8,84,30.22,10.0,ESE,4.6,-,N/A,,Overcast,120,2013-05-18 14:55:00
11:15 AM,70.5,66.2,86,30.21,10.0,East,10.4,-,N/A,,Mostly Cloudy,90,2013-05-18 15:15:00
11:35 AM,68.4,64.8,88,30.22,10.0,East,10.4,-,N/A,,Overcast,100,2013-05-18 15:35:00
11:55 AM,68.5,64.9,88,30.21,7.0,ESE,11.5,-,N/A,,Overcast,110,2013-05-18 15:55:00
12:15 PM,70.2,65.7,86,30.21,10.0,ESE,10.4,-,N/A,,Mostly Cloudy,110,2013-05-18 16:15:00
12:35 PM,70.0,64.8,83,30.21,10.0,ESE,10.4,-,N/A,,Overcast,110,2013-05-18 16:35:00
12:55 PM,69.1,65.5,88,30.20,10.0,ESE,10.4,-,N/A,Rain,Light Rain,110,2013-05-18 16:55:00
1:15 PM,69.3,64.8,86,30.19,10.0,ESE,11.5,18.4,N/A,,Overcast,120,2013-05-18 17:15:00
1:35 PM,71.1,65.7,83,30.19,10.0,ESE,12.7,-,N/A,,Scattered Clouds,120,2013-05-18 17:35:00
1:55 PM,73.0,65.7,78,30.18,10.0,ESE,13.8,19.6,N/A,,Clear,120,2013-05-18 17:55:00
2:15 PM,73.9,65.1,74,30.17,10.0,SE,17.3,20.7,N/A,,Clear,130,2013-05-18 18:15:00
2:35 PM,73.2,65.5,77,30.17,10.0,SE,16.1,21.9,N/A,,Scattered Clouds,130,2013-05-18 18:35:00
3:15 PM,73.2,66.6,80,30.16,10.0,SE,11.5,21.9,N/A,,Mostly Cloudy,130,2013-05-18 19:15:00
3:35 PM,74.3,66.7,77,30.16,10.0,SE,11.5,19.6,N/A,,Overcast,130,2013-05-18 19:35:00
3:55 PM,74.8,66.9,76,30.16,10.0,ESE,12.7,20.7,N/A,,Mostly Cloudy,120,2013-05-18 19:55:00
4:15 PM,73.9,66.7,78,30.16,10.0,SE,11.5,16.1,N/A,,Mostly Cloudy,140,2013-05-18 20:15:00
4:35 PM,75.2,67.3,76,30.16,10.0,SE,10.4,-,N/A,,Mostly Cloudy,130,2013-05-18 20:35:00
4:55 PM,74.3,67.3,79,30.15,10.0,SE,11.5,19.6,N/A,,Scattered Clouds,140,2013-05-18 20:55:00
5:15 PM,74.7,68.0,80,30.16,10.0,SE,11.5,17.3,N/A,,Clear,140,2013-05-18 21:15:00
5:35 PM,74.3,67.6,80,30.16,10.0,SE,13.8,17.3,N/A,,Mostly Cloudy,140,2013-05-18 21:35:00
6:15 PM,73.4,65.7,77,30.16,10.0,SSE,8.1,16.1,N/A,,Clear,150,2013-05-18 22:15:00
6:35 PM,73.2,66.4,79,30.15,10.0,SE,10.4,-,N/A,,Scattered Clouds,140,2013-05-18 22:35:00
6:55 PM,72.7,67.5,84,30.16,10.0,SE,9.2,16.1,N/A,,Mostly Cloudy,130,2013-05-18 22:55:00
7:15 PM,72.0,66.7,84,30.16,10.0,SE,11.5,-,N/A,,Mostly Cloudy,140,2013-05-18 23:15:00
7:35 PM,71.6,66.0,82,30.17,10.0,SSE,8.1,-,N/A,,Overcast,160,2013-05-18 23:35:00
7:55 PM,71.6,66.4,84,30.17,10.0,SSE,6.9,-,N/A,,Scattered Clouds,150,2013-05-18 23:55:00
8:15 PM,71.6,66.7,85,30.17,10.0,SSE,6.9,-,N/A,,Mostly Cloudy,150,2013-05-19 00:15:00
8:35 PM,71.2,66.7,86,30.17,10.0,SSE,5.8,-,N/A,,Overcast,150,2013-05-19 00:35:00
8:55 PM,71.2,66.4,85,30.17,10.0,SE,5.8,-,N/A,,Mostly Cloudy,140,2013-05-19 00:55:00
9:15 PM,71.6,65.7,81,30.17,10.0,SSE,8.1,-,N/A,,Mostly Cloudy,150,2013-05-19 01:15:00
9:35 PM,71.6,65.8,82,30.17,10.0,SSE,8.1,-,N/A,,Overcast,160,2013-05-19 01:35:00
9:55 PM,71.1,65.5,82,30.18,10.0,South,8.1,-,N/A,,Mostly Cloudy,170,2013-05-19 01:55:00
10:15 PM,71.4,67.3,87,30.19,10.0,SSE,6.9,-,N/A,,Mostly Cloudy,150,2013-05-19 02:15:00
10:35 PM,71.6,67.3,86,30.18,10.0,SSE,9.2,-,N/A,,Overcast,150,2013-05-19 02:35:00
10:55 PM,71.6,66.7,85,30.18,10.0,SSE,11.5,-,N/A,,Overcast,160,2013-05-19 02:55:00
11:15 PM,71.6,66.4,84,30.17,10.0,SSE,12.7,-,N/A,,Overcast,160,2013-05-19 03:15:00
11:35 PM,71.6,66.6,84,30.17,10.0,South,8.1,16.1,N/A,,Scattered Clouds,170,2013-05-19 03:35:00
11:55 PM,71.6,66.6,84,30.17,10.0,South,11.5,17.3,N/A,,Scattered Clouds,170,2013-05-19 03:55:00